createdAt,value
2022-11-28T00:01:18.211Z,101136.03
2022-11-28T00:03:45.612Z,101141.41
2022-11-28T00:06:12.798Z,101139.63
2022-11-28T00:08:39.967Z,101137.75
2022-11-28T00:11:09.232Z,101136.69
2022-11-28T00:13:36.811Z,101129.84
2022-11-28T00:16:06.411Z,101135.78
2022-11-28T00:18:34.197Z,101127.88
2022-11-28T00:21:06.895Z,101133.78
2022-11-28T00:23:34.353Z,101125.97
2022-11-28T00:26:08.140Z,101130.59
2022-11-28T00:28:35.484Z,101129.06
2022-11-28T00:31:03.657Z,101110.06
2022-11-28T00:33:32.410Z,101120.72
2022-11-28T00:36:01.105Z,101123.25
2022-11-28T00:38:28.697Z,101126.63
2022-11-28T00:41:04.455Z,101130.22
2022-11-28T00:43:31.820Z,101130.31
2022-11-28T00:45:58.896Z,101124.19
2022-11-28T00:48:26.383Z,101127.75
2022-11-28T00:50:54.669Z,101130.38
2022-11-28T00:53:21.902Z,101128.13
2022-11-28T00:55:48.842Z,101132.66
2022-11-28T00:58:15.995Z,101135.97
2022-11-28T01:00:43.057Z,101128.97
2022-11-28T01:03:10.063Z,101124.66
2022-11-28T01:05:41.781Z,101114.00
2022-11-28T01:08:09.869Z,101124.84
2022-11-28T01:10:42.313Z,101130.78
2022-11-28T01:13:10.059Z,101125.59
2022-11-28T01:15:40.929Z,101133.59
2022-11-28T01:18:08.379Z,101125.59
2022-11-28T01:20:35.739Z,101126.63
2022-11-28T01:23:03.122Z,101121.66
2022-11-28T01:25:30.323Z,101140.66
2022-11-28T01:27:57.323Z,101135.28
2022-11-28T01:30:24.687Z,101142.25
2022-11-28T01:32:51.638Z,101138.88
2022-11-28T01:35:18.724Z,101141.38
2022-11-28T01:37:45.820Z,101142.53
2022-11-28T01:40:13.642Z,101144.78
2022-11-28T01:42:40.632Z,101142.91
2022-11-28T01:45:14.754Z,101133.31
2022-11-28T01:47:41.930Z,101137.56
2022-11-28T01:50:09.303Z,101142.72
2022-11-28T01:52:39.216Z,101138.41
2022-11-28T01:55:07.334Z,101132.44
2022-11-28T01:57:34.438Z,101141.78
2022-11-28T02:00:09.318Z,101140.75
2022-11-28T02:02:49.049Z,101130.78
2022-11-28T02:05:17.671Z,101131.88
2022-11-28T02:07:45.746Z,101132.91
2022-11-28T02:10:16.992Z,101126.44
2022-11-28T02:13:07.132Z,101129.56
2022-11-28T02:15:40.295Z,101146.56
2022-11-28T02:18:13.488Z,101139.78
2022-11-28T02:21:15.976Z,101150.31
2022-11-28T02:24:24.494Z,101149.56
2022-11-28T02:27:05.334Z,101157.84
2022-11-28T02:30:17.203Z,101163.19
2022-11-28T02:32:44.069Z,101158.88
2022-11-28T02:35:21.602Z,101158.19
2022-11-28T02:38:02.433Z,101162.69
2022-11-28T02:40:32.122Z,101168.91
2022-11-28T02:43:16.549Z,101165.44
2022-11-28T02:52:06.377Z,101169.25
2022-11-28T02:57:14.629Z,101171.81
2022-11-28T02:59:41.581Z,101170.88
2022-11-28T03:02:32.094Z,101156.09
2022-11-28T03:05:14.285Z,101176.22
2022-11-28T03:07:53.101Z,101174.44
2022-11-28T03:10:50.308Z,101173.78
2022-11-28T03:13:29.535Z,101179.88
2022-11-28T03:16:06.887Z,101185.03
2022-11-28T03:18:40.587Z,101182.34
2022-11-28T03:21:26.692Z,101190.50
2022-11-28T03:23:58.330Z,101183.72
2022-11-28T03:26:30.355Z,101189.06
2022-11-28T03:29:07.208Z,101195.44
2022-11-28T03:31:39.251Z,101188.56
2022-11-28T03:34:07.493Z,101196.31
2022-11-28T03:36:52.812Z,101198.00
2022-11-28T03:39:23.069Z,101192.06
2022-11-28T03:42:12.182Z,101199.84
2022-11-28T03:44:48.439Z,101206.91
2022-11-28T03:47:15.733Z,101199.97
2022-11-28T03:49:48.194Z,101205.06
2022-11-28T03:52:42.223Z,101199.03
2022-11-28T03:55:14.508Z,101209.81
2022-11-28T03:57:44.608Z,101208.88
2022-11-28T04:00:13.134Z,101213.13
2022-11-28T04:02:52.590Z,101206.16
2022-11-28T04:05:44.798Z,101209.47
2022-11-28T04:08:18.566Z,101207.00
2022-11-28T04:11:09.648Z,101209.47
2022-11-28T04:14:16.719Z,101199.03
2022-11-28T04:16:58.690Z,101202.09
2022-11-28T04:19:37.428Z,101204.94
2022-11-28T04:22:14.815Z,101212.69
2022-11-28T04:24:46.614Z,101218.97
2022-11-28T04:27:17.490Z,101209.53
2022-11-28T04:29:48.867Z,101222.03
2022-11-28T04:32:19.434Z,101220.59
2022-11-28T04:34:51.506Z,101219.75
2022-11-28T04:37:19.358Z,101232.47
2022-11-28T04:39:48.403Z,101229.94
2022-11-28T04:42:18.808Z,101230.84
2022-11-28T04:44:55.432Z,101229.75
2022-11-28T04:47:23.936Z,101237.84
2022-11-28T04:49:51.008Z,101245.56
2022-11-28T04:52:40.577Z,101248.25
2022-11-28T04:55:12.535Z,101244.03
2022-11-28T04:57:45.654Z,101252.94
2022-11-28T05:00:19.638Z,101246.66
2022-11-28T05:02:53.082Z,101255.91
2022-11-28T05:05:24.360Z,101252.91
2022-11-28T05:07:53.067Z,101257.91
2022-11-28T05:10:20.792Z,101252.56
2022-11-28T05:12:53.603Z,101249.53
2022-11-28T05:15:20.646Z,101249.44
2022-11-28T05:17:57.552Z,101253.44
2022-11-28T05:20:24.627Z,101263.88
2022-11-28T05:22:51.647Z,101268.47
2022-11-28T05:25:19.039Z,101249.47
2022-11-28T05:27:46.150Z,101272.97
2022-11-28T05:30:13.788Z,101278.59
2022-11-28T05:32:41.351Z,101280.63
2022-11-28T05:35:08.649Z,101289.94
2022-11-28T05:37:35.667Z,101299.38
2022-11-28T05:40:02.614Z,101298.50
2022-11-28T05:42:33.444Z,101304.13
2022-11-28T05:45:00.958Z,101296.47
2022-11-28T05:47:31.186Z,101304.56
2022-11-28T05:49:58.220Z,101306.59
2022-11-28T05:52:25.935Z,101311.91
2022-11-28T05:54:52.890Z,101315.50
2022-11-28T05:57:19.818Z,101319.56
2022-11-28T05:59:47.008Z,101305.31
2022-11-28T06:02:14.146Z,101321.78
2022-11-28T06:04:42.112Z,101304.38
2022-11-28T06:07:09.322Z,101315.69
2022-11-28T06:09:36.524Z,101310.41
2022-11-28T06:12:04.072Z,101317.88
2022-11-28T06:14:31.206Z,101313.28
2022-11-28T06:16:58.331Z,101323.22
2022-11-28T06:19:25.452Z,101322.63
2022-11-28T06:21:53.607Z,101319.06
2022-11-28T06:24:20.840Z,101317.09
2022-11-28T06:26:47.786Z,101318.97
2022-11-28T06:29:14.949Z,101316.28
2022-11-28T06:31:42.144Z,101320.94
2022-11-28T06:34:11.883Z,101333.66
2022-11-28T06:36:39.702Z,101328.22
2022-11-28T06:39:06.989Z,101328.06
2022-11-28T06:41:37.018Z,101345.38
2022-11-28T06:44:04.249Z,101331.28
2022-11-28T06:46:31.182Z,101327.72
2022-11-28T06:48:58.698Z,101333.19
2022-11-28T06:51:26.178Z,101318.28
2022-11-28T06:53:54.513Z,101334.09
2022-11-28T06:56:21.696Z,101335.81
2022-11-28T06:58:55.153Z,101317.53
2022-11-28T07:01:23.712Z,101342.34
2022-11-28T07:03:50.904Z,101342.34
2022-11-28T07:06:19.504Z,101338.75
2022-11-28T07:08:46.867Z,101334.25
2022-11-28T07:11:19.192Z,101333.00
2022-11-28T07:13:46.679Z,101339.09
2022-11-28T07:16:20.055Z,101333.91
2022-11-28T07:18:47.653Z,101336.53
2022-11-28T07:21:22.207Z,101333.50
2022-11-28T07:23:49.238Z,101337.91
2022-11-28T07:26:19.556Z,101352.19
2022-11-28T07:28:47.269Z,101337.13
2022-11-28T07:31:17.534Z,101348.63
2022-11-28T07:33:46.635Z,101348.38
2022-11-28T07:36:23.014Z,101349.97
2022-11-28T07:38:57.731Z,101337.91
2022-11-28T07:41:27.012Z,101338.75
2022-11-28T07:43:56.717Z,101340.47
2022-11-28T07:46:24.589Z,101346.25
2022-11-28T07:48:51.962Z,101347.16
2022-11-28T07:51:24.476Z,101349.63
2022-11-28T07:53:56.635Z,101345.91
2022-11-28T07:56:35.115Z,101355.22
2022-11-28T07:59:12.262Z,101362.78
2022-11-28T08:01:39.311Z,101355.03
2022-11-28T08:04:08.068Z,101357.69
2022-11-28T08:06:40.754Z,101345.47
2022-11-28T08:09:08.322Z,101361.66
2022-11-28T08:11:35.713Z,101363.53
2022-11-28T08:14:03.356Z,101353.31
2022-11-28T08:16:31.544Z,101363.28
2022-11-28T08:19:16.735Z,101362.63
2022-11-28T08:21:44.672Z,101378.66
2022-11-28T08:24:13.366Z,101361.19
2022-11-28T08:26:40.431Z,101361.84
2022-11-28T08:29:07.587Z,101377.13
2022-11-28T08:31:36.966Z,101372.91
2022-11-28T08:34:07.258Z,101373.19
2022-11-28T08:36:36.511Z,101373.31
2022-11-28T08:41:57.458Z,101378.66
2022-11-28T08:44:30.261Z,101382.59
2022-11-28T08:47:00.723Z,101381.13
2022-11-28T08:49:27.840Z,101376.16
2022-11-28T08:51:54.860Z,101375.13
2022-11-28T08:54:21.885Z,101384.06
2022-11-28T08:56:49.014Z,101386.53
2022-11-28T08:59:18.246Z,101376.16
2022-11-28T09:01:46.414Z,101389.50
2022-11-28T09:04:13.518Z,101378.81
2022-11-28T09:06:40.885Z,101385.97
2022-11-28T09:09:09.584Z,101384.75
2022-11-28T09:11:39.050Z,101392.50
2022-11-28T09:14:06.640Z,101382.31
2022-11-28T09:16:33.947Z,101394.63
2022-11-28T09:19:01.267Z,101379.66
2022-11-28T09:21:31.402Z,101381.53
2022-11-28T09:24:04.038Z,101386.28
2022-11-28T09:26:31.782Z,101387.25
2022-11-28T09:28:58.949Z,101392.91
2022-11-28T09:31:26.633Z,101374.91
2022-11-28T09:33:53.909Z,101392.72
2022-11-28T09:36:25.098Z,101391.63
2022-11-28T09:38:52.373Z,101392.41
2022-11-28T09:41:42.788Z,101401.91
2022-11-28T09:44:37.287Z,101396.97
2022-11-28T09:47:07.146Z,101391.38
2022-11-28T09:49:47.387Z,101390.28
2022-11-28T09:52:22.411Z,101394.19
2022-11-28T09:54:52.278Z,101391.56
2022-11-28T09:57:37.599Z,101389.78
2022-11-28T10:00:06.350Z,101389.00
2022-11-28T10:03:09.673Z,101377.44
2022-11-28T10:05:36.843Z,101388.53
2022-11-28T10:08:46.188Z,101379.50
2022-11-28T10:11:52.362Z,101387.25
2022-11-28T10:14:44.066Z,101380.50
2022-11-28T10:17:29.022Z,101385.53
2022-11-28T10:20:17.149Z,101382.72
2022-11-28T10:22:45.792Z,101381.69
2022-11-28T10:25:21.383Z,101376.72
2022-11-28T10:27:49.840Z,101380.84
2022-11-28T10:30:22.409Z,101385.66
2022-11-28T10:32:57.507Z,101382.47
2022-11-28T10:35:43.066Z,101375.31
2022-11-28T10:38:14.587Z,101380.66
2022-11-28T10:40:52.692Z,101381.09
2022-11-28T10:43:26.261Z,101389.19
2022-11-28T10:46:31.359Z,101390.88
2022-11-28T10:49:31.382Z,101390.28
2022-11-28T10:52:22.783Z,101392.72
2022-11-28T10:55:17.358Z,101392.72
2022-11-28T10:58:03.728Z,101385.00
2022-11-28T11:00:31.322Z,101385.00
2022-11-28T11:03:02.369Z,101366.56
2022-11-28T11:05:32.548Z,101373.72
2022-11-28T11:08:08.804Z,101378.22
2022-11-28T11:10:47.135Z,101389.00
2022-11-28T11:13:17.105Z,101384.59
2022-11-28T11:15:46.038Z,101392.41
2022-11-28T11:18:46.799Z,101397.34
2022-11-28T11:21:20.570Z,101391.38
2022-11-28T11:23:49.583Z,101385.78
2022-11-28T11:26:25.956Z,101386.47
2022-11-28T11:28:59.779Z,101396.06
2022-11-28T11:31:39.408Z,101390.56
2022-11-28T11:34:17.159Z,101397.19
2022-11-28T11:36:45.167Z,101412.31
2022-11-28T11:39:14.994Z,101404.75
2022-11-28T11:41:44.200Z,101392.34
2022-11-28T11:44:36.568Z,101406.09
2022-11-28T11:47:07.306Z,101410.28
2022-11-28T11:49:39.135Z,101408.31
2022-11-28T11:52:13.028Z,101410.34
2022-11-28T11:55:04.866Z,101393.47
2022-11-28T11:57:41.311Z,101419.53
2022-11-28T12:00:16.133Z,101414.53
2022-11-28T12:02:57.427Z,101424.03
2022-11-28T12:06:06.048Z,101405.50
2022-11-28T12:08:37.327Z,101415.50
2022-11-28T12:11:10.949Z,101413.75
2022-11-28T12:13:38.242Z,101422.81
2022-11-28T12:16:30.947Z,101406.09
2022-11-28T12:19:12.565Z,101413.22
2022-11-28T12:22:18.162Z,101409.81
2022-11-28T12:25:05.929Z,101421.19
2022-11-28T12:28:13.938Z,101415.59
2022-11-28T12:30:50.632Z,101416.28
2022-11-28T12:36:44.158Z,101427.13
2022-11-28T12:39:30.639Z,101425.59
2022-11-28T12:42:26.991Z,101441.13
2022-11-28T12:45:21.447Z,101436.94
2022-11-28T12:47:48.348Z,101441.13
2022-11-28T12:50:21.995Z,101442.66
2022-11-28T12:52:52.211Z,101448.53
2022-11-28T12:55:19.349Z,101444.13
2022-11-28T12:58:00.455Z,101434.91
2022-11-28T13:00:30.113Z,101442.63
2022-11-28T13:03:05.948Z,101454.00
2022-11-28T13:05:45.564Z,101443.63
2022-11-28T13:08:33.791Z,101452.59
2022-11-28T13:11:20.447Z,101459.41
2022-11-28T13:13:57.907Z,101460.19
2022-11-28T13:16:37.014Z,101446.50
2022-11-28T13:19:12.920Z,101456.16
2022-11-28T13:21:46.283Z,101447.50
2022-11-28T13:24:34.508Z,101452.47
2022-11-28T13:27:07.573Z,101464.75
2022-11-28T13:29:59.497Z,101462.28
2022-11-28T13:32:46.507Z,101448.00
2022-11-28T13:35:18.834Z,101460.44
2022-11-28T13:41:35.834Z,101452.00
2022-11-28T13:44:17.095Z,101462.28
2022-11-28T13:46:45.336Z,101464.41
2022-11-28T13:49:24.442Z,101466.09
2022-11-28T13:52:19.310Z,101472.97
2022-11-28T13:54:54.096Z,101476.06
2022-11-28T13:57:39.935Z,101463.34
2022-11-28T14:00:23.052Z,101471.88
2022-11-28T14:02:53.529Z,101461.66
2022-11-28T14:05:28.025Z,101479.38
2022-11-28T14:07:59.207Z,101480.03
2022-11-28T14:10:38.776Z,101488.41
2022-11-28T14:13:11.539Z,101491.75
2022-11-28T14:15:57.461Z,101491.56
2022-11-28T14:18:55.506Z,101491.75
2022-11-28T14:21:46.287Z,101463.50
2022-11-28T14:24:33.960Z,101491.63
2022-11-28T14:27:03.073Z,101476.50
2022-11-28T14:29:37.302Z,101497.16
2022-11-28T14:34:53.854Z,101489.34
2022-11-28T14:37:21.954Z,101488.16
2022-11-28T14:39:50.259Z,101487.47
2022-11-28T14:42:43.834Z,101487.47
2022-11-28T14:45:34.232Z,101487.38
2022-11-28T14:48:22.659Z,101492.59
2022-11-28T14:50:56.233Z,101477.03
2022-11-28T14:53:36.348Z,101482.22
2022-11-28T14:56:25.356Z,101483.41
2022-11-28T14:59:03.310Z,101477.41
2022-11-28T15:02:03.440Z,101482.50
2022-11-28T15:05:09.918Z,101471.31
2022-11-28T15:07:55.571Z,101473.16
2022-11-28T15:10:37.455Z,101466.34
2022-11-28T15:13:25.831Z,101475.88
2022-11-28T15:15:53.563Z,101482.22
2022-11-28T15:18:22.704Z,101470.63
2022-11-28T15:20:55.501Z,101479.50
2022-11-28T15:23:30.561Z,101472.38
2022-11-28T15:25:59.256Z,101470.28
2022-11-28T15:28:29.091Z,101469.50
2022-11-28T15:30:58.356Z,101492.09
2022-11-28T15:33:26.802Z,101493.78
2022-11-28T15:36:00.356Z,101494.63
2022-11-28T15:38:32.586Z,101499.06
2022-11-28T15:41:00.556Z,101485.28
2022-11-28T15:43:28.288Z,101488.44
2022-11-28T15:46:01.579Z,101497.53
2022-11-28T15:48:40.075Z,101493.09
2022-11-28T15:51:11.340Z,101502.41
2022-11-28T15:53:48.409Z,101497.19
2022-11-28T15:56:16.437Z,101483.44
2022-11-28T15:58:47.893Z,101502.09
2022-11-28T16:01:25.470Z,101489.25
2022-11-28T16:03:54.949Z,101495.97
2022-11-28T16:06:25.574Z,101492.63
2022-11-28T16:09:19.845Z,101479.75
2022-11-28T16:11:50.114Z,101490.88
2022-11-28T16:14:32.626Z,101493.50
2022-11-28T16:17:02.993Z,101490.09
2022-11-28T16:19:36.130Z,101485.00
2022-11-28T16:22:37.046Z,101475.41
2022-11-28T16:25:21.227Z,101475.41
2022-11-28T16:27:53.153Z,101485.63
2022-11-28T16:30:39.047Z,101484.75
2022-11-28T16:33:38.491Z,101495.19
2022-11-28T16:39:12.631Z,101481.16
2022-11-28T16:41:42.750Z,101486.06
2022-11-28T16:44:15.635Z,101493.63
2022-11-28T16:46:55.494Z,101492.00
2022-11-28T16:49:37.332Z,101499.38
2022-11-28T16:52:33.967Z,101501.41
2022-11-28T16:55:11.937Z,101493.00
2022-11-28T16:57:47.072Z,101512.13
2022-11-28T17:00:19.326Z,101504.31
2022-11-28T17:02:46.452Z,101488.75
2022-11-28T17:05:13.445Z,101494.78
2022-11-28T17:07:40.621Z,101490.38
2022-11-28T17:10:08.357Z,101493.63
2022-11-28T17:12:39.067Z,101488.53
2022-11-28T17:15:08.790Z,101502.88
2022-11-28T17:17:36.585Z,101502.81
2022-11-28T17:20:04.148Z,101496.44
2022-11-28T17:22:41.097Z,101499.44
2022-11-28T17:25:18.042Z,101507.13
2022-11-28T17:27:46.194Z,101500.06
2022-11-28T17:30:14.844Z,101500.41
2022-11-28T17:32:41.904Z,101492.19
2022-11-28T17:35:19.595Z,101510.53
2022-11-28T17:37:47.702Z,101509.69
2022-11-28T17:40:33.656Z,101508.69
2022-11-28T17:43:03.718Z,101519.94
2022-11-28T17:45:34.079Z,101515.63
2022-11-28T17:48:03.370Z,101524.13
2022-11-28T17:50:30.870Z,101527.38
2022-11-28T17:52:57.906Z,101516.94
2022-11-28T17:55:25.369Z,101526.59
2022-11-28T17:57:53.884Z,101522.28
2022-11-28T18:00:26.515Z,101520.34
2022-11-28T18:02:53.671Z,101516.19
2022-11-28T18:05:21.574Z,101520.44
2022-11-28T18:07:49.819Z,101511.66
2022-11-28T18:10:17.132Z,101528.31
2022-11-28T18:12:44.266Z,101516.03
2022-11-28T18:15:11.435Z,101522.78
2022-11-28T18:17:38.772Z,101516.81
2022-11-28T18:20:07.295Z,101522.06
2022-11-28T18:22:35.745Z,101523.81
2022-11-28T18:25:03.321Z,101516.88
2022-11-28T18:27:30.516Z,101518.56
2022-11-28T18:29:57.508Z,101515.31
2022-11-28T18:32:24.931Z,101499.22
2022-11-28T18:34:52.094Z,101518.88
2022-11-28T18:37:19.354Z,101522.72
2022-11-28T18:39:47.292Z,101521.19
2022-11-28T18:42:18.236Z,101527.38
2022-11-28T18:44:48.327Z,101522.28
2022-11-28T18:47:18.052Z,101525.38
2022-11-28T18:49:46.438Z,101528.84
2022-11-28T18:52:14.199Z,101519.31
2022-11-28T18:54:42.347Z,101523.34
2022-11-28T18:57:09.748Z,101524.19
2022-11-28T18:59:39.359Z,101532.94
2022-11-28T19:02:06.470Z,101540.50
2022-11-28T19:04:33.842Z,101529.22
2022-11-28T19:07:01.733Z,101526.75
2022-11-28T19:09:30.673Z,101530.16
2022-11-28T19:11:57.905Z,101537.88
2022-11-28T19:14:24.817Z,101531.94
2022-11-28T19:16:54.155Z,101536.25
2022-11-28T19:19:21.370Z,101534.56
2022-11-28T19:21:49.379Z,101536.56
2022-11-28T19:24:17.184Z,101539.25
2022-11-28T19:26:44.218Z,101532.44
2022-11-28T19:29:11.508Z,101529.59
2022-11-28T19:31:39.683Z,101522.66
2022-11-28T19:34:08.455Z,101526.34
2022-11-28T19:36:39.545Z,101533.72
2022-11-28T19:39:07.791Z,101532.06
2022-11-28T19:41:35.178Z,101525.06
2022-11-28T19:44:03.162Z,101533.41
2022-11-28T19:46:35.521Z,101536.66
2022-11-28T19:49:08.571Z,101539.44
2022-11-28T19:51:35.723Z,101546.63
2022-11-28T19:54:04.207Z,101542.97
2022-11-28T19:56:33.762Z,101548.88
2022-11-28T19:59:01.039Z,101545.34
2022-11-28T20:01:28.681Z,101551.44
2022-11-28T20:03:59.789Z,101558.38
2022-11-28T20:06:29.390Z,101559.38
2022-11-28T20:09:00.931Z,101554.13
2022-11-28T20:11:31.673Z,101553.22
2022-11-28T20:14:19.583Z,101558.47
2022-11-28T20:19:27.982Z,101561.09
2022-11-28T20:21:56.649Z,101534.63
2022-11-28T20:24:25.243Z,101560.38
2022-11-28T20:26:52.848Z,101565.59
2022-11-28T20:29:21.154Z,101554.28
2022-11-28T20:31:49.911Z,101560.16
2022-11-28T20:34:18.299Z,101558.53
2022-11-28T20:36:46.514Z,101564.38
2022-11-28T20:39:13.822Z,101571.47
2022-11-28T20:41:41.077Z,101578.56
2022-11-28T20:44:08.415Z,101575.31
2022-11-28T20:46:35.835Z,101571.16
2022-11-28T20:49:05.417Z,101573.47
2022-11-28T20:51:34.073Z,101586.47
2022-11-28T20:54:01.967Z,101581.28
2022-11-28T20:56:30.955Z,101579.34
2022-11-28T20:59:00.789Z,101574.63
2022-11-28T21:01:37.855Z,101582.34
2022-11-28T21:04:06.958Z,101580.72
2022-11-28T21:06:36.354Z,101587.41
2022-11-28T21:09:04.877Z,101584.69
2022-11-28T21:14:23.627Z,101583.84
2022-11-28T21:16:50.841Z,101581.97
2022-11-28T21:19:17.879Z,101582.94
2022-11-28T21:21:45.044Z,101593.56
2022-11-28T21:24:13.069Z,101588.56
2022-11-28T21:26:44.228Z,101599.59
2022-11-28T21:29:15.237Z,101595.56
2022-11-28T21:31:44.406Z,101595.44
2022-11-28T21:34:15.641Z,101603.25
2022-11-28T21:36:43.250Z,101601.59
2022-11-28T21:39:14.143Z,101600.75
2022-11-28T21:41:41.170Z,101596.44
2022-11-28T21:44:09.084Z,101599.28
2022-11-28T21:46:36.276Z,101606.19
2022-11-28T21:49:03.314Z,101606.88
2022-11-28T21:51:30.491Z,101597.97
2022-11-28T21:53:57.788Z,101600.53
2022-11-28T21:56:25.633Z,101600.44
2022-11-28T21:58:54.019Z,101600.59
2022-11-28T22:01:21.512Z,101590.25
2022-11-28T22:03:49.364Z,101600.91
2022-11-28T22:06:22.451Z,101596.50
2022-11-28T22:08:49.929Z,101596.56
2022-11-28T22:11:17.648Z,101599.19
2022-11-28T22:13:47.953Z,101595.72
2022-11-28T22:16:26.336Z,101594.81
2022-11-28T22:18:55.428Z,101599.66
2022-11-28T22:24:11.223Z,101594.63
2022-11-28T22:26:38.583Z,101601.34
2022-11-28T22:29:06.272Z,101594.09
2022-11-28T22:31:33.411Z,101595.50
2022-11-28T22:34:00.552Z,101592.88
2022-11-28T22:36:28.507Z,101590.31
2022-11-28T22:38:56.982Z,101594.19
2022-11-28T22:41:29.017Z,101588.25
2022-11-28T22:44:01.017Z,101596.19
2022-11-28T22:46:30.153Z,101586.19
2022-11-28T22:49:00.158Z,101590.84
2022-11-28T22:51:28.623Z,101598.09
2022-11-28T22:53:58.087Z,101590.25
2022-11-28T22:56:28.234Z,101608.75
2022-11-28T22:58:55.658Z,101599.88
2022-11-28T23:01:26.035Z,101596.16
2022-11-28T23:03:53.789Z,101596.09
2022-11-28T23:06:24.327Z,101582.56
2022-11-28T23:08:55.823Z,101590.56
2022-11-28T23:11:27.526Z,101596.34
2022-11-28T23:13:55.473Z,101594.34
2022-11-28T23:16:25.733Z,101596.97
2022-11-28T23:18:57.012Z,101598.69
2022-11-28T23:21:25.923Z,101597.53
2022-11-28T23:23:53.940Z,101599.16
2022-11-28T23:26:23.622Z,101590.50
2022-11-28T23:28:51.505Z,101600.09
2022-11-28T23:31:21.297Z,101592.13
2022-11-28T23:33:49.255Z,101588.66
2022-11-28T23:36:19.159Z,101589.56
2022-11-28T23:38:48.284Z,101597.03
2022-11-28T23:41:15.558Z,101591.72
2022-11-28T23:43:42.849Z,101592.72
2022-11-28T23:46:10.908Z,101590.09
2022-11-28T23:48:38.497Z,101592.72
2022-11-28T23:51:06.678Z,101592.56
2022-11-28T23:53:34.481Z,101598.81
2022-11-28T23:56:29.226Z,101595.28
2022-11-28T23:58:57.375Z,101599.75
